Time;durP1;ratioP1;P1;durP2;ratioP2;P2;SDS_P1;SDS_P2;PMS_P1;PMS_P2;Temp;Humidity;BMP_temperature;BMP_pressure;BME280_temperature;BME280_humidity;BME280_pressure;Samples;Min_cycle;Max_cycle;Signal;HPM_P1;HPM_P2
2023/03/03 00:00:31;;;;;;;;;;;19.50;41.80;;;;;;5088773;28;19919;-62
2023/03/03 00:02:58;;;;;;;;;;;19.50;41.80;;;;;;5086385;28;19920;-62
2023/03/03 00:05:26;;;;;;;;;;;19.50;41.80;;;;;;5121210;27;19919;-62
2023/03/03 00:07:52;;;;;;;;;;;19.50;41.80;;;;;;5120155;27;20008;-62
2023/03/03 00:10:20;;;;;;;;;;;19.50;41.80;;;;;;5105278;28;19924;-62
2023/03/03 00:12:47;;;;;;;;;;;19.50;41.80;;;;;;5091547;28;20163;-61
2023/03/03 00:15:14;;;;;;;;;;;19.50;41.80;;;;;;5085786;28;20212;-61
2023/03/03 00:17:41;;;;;;;;;;;19.50;41.80;;;;;;5082988;28;20420;-61
2023/03/03 00:20:23;;;;;;;;;;;19.40;41.70;;;;;;5090196;28;20266;-61
2023/03/03 00:22:51;;;;;;;;;;;19.40;41.70;;;;;;5087888;28;19931;-62
2023/03/03 00:25:23;;;;;;;;;;;19.50;41.80;;;;;;5090026;28;20380;-61
2023/03/03 00:27:50;;;;;;;;;;;19.40;41.60;;;;;;5084623;28;19973;-62
2023/03/03 00:30:17;;;;;;;;;;;19.50;41.70;;;;;;5084680;28;19926;-62
2023/03/03 00:32:45;;;;;;;;;;;19.50;41.70;;;;;;5119112;27;20059;-62
2023/03/03 00:35:21;;;;;;;;;;;19.50;41.70;;;;;;5085531;28;19924;-62
2023/03/03 00:37:48;;;;;;;;;;;19.40;41.60;;;;;;5087455;28;19938;-63
2023/03/03 00:40:30;;;;;;;;;;;19.50;41.70;;;;;;5121430;27;19923;-62
2023/03/03 00:42:59;;;;;;;;;;;19.40;41.60;;;;;;5087134;28;19926;-62
2023/03/03 00:45:27;;;;;;;;;;;19.40;41.60;;;;;;5086136;28;20310;-63
2023/03/03 00:47:54;;;;;;;;;;;19.40;41.60;;;;;;5105620;28;20010;-62
2023/03/03 00:50:25;;;;;;;;;;;19.40;41.60;;;;;;5091483;28;19969;-62
2023/03/03 00:52:56;;;;;;;;;;;19.40;41.60;;;;;;5103308;28;20012;-62
2023/03/03 00:55:23;;;;;;;;;;;19.40;41.60;;;;;;5106464;28;20018;-62
2023/03/03 00:57:49;;;;;;;;;;;19.40;41.60;;;;;;5088090;28;19931;-63
2023/03/03 01:00:18;;;;;;;;;;;19.40;41.60;;;;;;5118758;27;19920;-63
2023/03/03 01:02:47;;;;;;;;;;;19.40;41.60;;;;;;5077479;28;19927;-61
2023/03/03 01:05:14;;;;;;;;;;;19.40;41.50;;;;;;5093818;28;20369;-62
2023/03/03 01:07:41;;;;;;;;;;;19.40;41.50;;;;;;5093721;28;19969;-62
2023/03/03 01:10:08;;;;;;;;;;;19.40;41.50;;;;;;5111843;28;19959;-62
2023/03/03 01:12:35;;;;;;;;;;;19.40;41.60;;;;;;5112488;28;19920;-62
2023/03/03 01:15:04;;;;;;;;;;;19.40;41.50;;;;;;5093216;28;19931;-62
2023/03/03 01:17:33;;;;;;;;;;;19.40;41.50;;;;;;5122549;27;19927;-61
2023/03/03 01:19:59;;;;;;;;;;;19.40;41.50;;;;;;5100466;28;19927;-62
2023/03/03 01:22:26;;;;;;;;;;;19.40;41.50;;;;;;5093686;28;19969;-62
2023/03/03 01:24:53;;;;;;;;;;;19.40;41.50;;;;;;5093412;28;19920;-62
2023/03/03 01:27:20;;;;;;;;;;;19.40;41.40;;;;;;5093780;28;19962;-62
2023/03/03 01:29:47;;;;;;;;;;;19.40;41.40;;;;;;5111249;28;19923;-62
2023/03/03 01:32:13;;;;;;;;;;;19.40;41.40;;;;;;5093052;28;19930;-62
2023/03/03 01:34:41;;;;;;;;;;;19.40;41.40;;;;;;5098746;28;19920;-62
2023/03/03 01:37:08;;;;;;;;;;;19.40;41.40;;;;;;5078272;28;19924;-62
2023/03/03 01:39:35;;;;;;;;;;;19.40;41.40;;;;;;5084040;28;19923;-62
2023/03/03 01:42:02;;;;;;;;;;;19.40;41.40;;;;;;5092639;28;19927;-62
2023/03/03 01:44:29;;;;;;;;;;;19.40;41.40;;;;;;5093103;28;19924;-63
2023/03/03 01:46:56;;;;;;;;;;;19.40;41.40;;;;;;5082176;28;19924;-62
2023/03/03 01:49:23;;;;;;;;;;;19.40;41.40;;;;;;5105830;28;19923;-63
2023/03/03 01:51:52;;;;;;;;;;;19.40;41.40;;;;;;5090311;28;20320;-62
2023/03/03 01:54:21;;;;;;;;;;;19.40;41.40;;;;;;5106495;28;19969;-62
2023/03/03 01:56:48;;;;;;;;;;;19.40;41.40;;;;;;5090182;28;19932;-62
2023/03/03 01:59:15;;;;;;;;;;;19.40;41.40;;;;;;5091103;28;19951;-63
2023/03/03 02:01:42;;;;;;;;;;;19.40;41.40;;;;;;5122847;27;19928;-62
2023/03/03 02:04:09;;;;;;;;;;;19.30;41.30;;;;;;5106051;28;19920;-63
2023/03/03 02:06:36;;;;;;;;;;;19.30;41.30;;;;;;5086918;28;19964;-62
2023/03/03 02:09:06;;;;;;;;;;;19.40;41.90;;;;;;5091013;28;20436;-62
2023/03/03 02:11:33;;;;;;;;;;;19.30;41.20;;;;;;5089412;28;19958;-62
2023/03/03 02:13:59;;;;;;;;;;;19.30;41.30;;;;;;5092176;28;20067;-62
2023/03/03 02:16:26;;;;;;;;;;;19.30;41.20;;;;;;5092132;28;19959;-62
2023/03/03 02:19:03;;;;;;;;;;;19.30;41.20;;;;;;5092671;28;19934;-62
2023/03/03 02:21:29;;;;;;;;;;;19.30;41.20;;;;;;5090900;28;19980;-62
2023/03/03 02:23:58;;;;;;;;;;;19.30;41.20;;;;;;5090977;28;19923;-62
2023/03/03 02:26:26;;;;;;;;;;;19.30;41.20;;;;;;5087863;28;19955;-62
2023/03/03 02:28:53;;;;;;;;;;;19.30;41.20;;;;;;5109975;28;19927;-62
2023/03/03 02:31:21;;;;;;;;;;;19.30;41.20;;;;;;5092124;28;19919;-62
2023/03/03 02:33:48;;;;;;;;;;;19.30;41.20;;;;;;5092186;28;19980;-62
2023/03/03 02:36:15;;;;;;;;;;;19.30;41.20;;;;;;5104109;28;19923;-62
2023/03/03 02:38:43;;;;;;;;;;;19.30;41.20;;;;;;5090574;28;20387;-62
2023/03/03 02:41:11;;;;;;;;;;;19.30;41.20;;;;;;5094051;28;19920;-62
2023/03/03 02:43:42;;;;;;;;;;;19.30;41.20;;;;;;5085368;28;19919;-62
2023/03/03 02:46:11;;;;;;;;;;;19.30;41.10;;;;;;5090773;28;19924;-62
2023/03/03 02:48:37;;;;;;;;;;;19.30;41.20;;;;;;5091742;28;19919;-62
2023/03/03 02:51:04;;;;;;;;;;;19.30;41.10;;;;;;5091436;28;20365;-62
2023/03/03 02:53:31;;;;;;;;;;;19.30;41.10;;;;;;5091570;28;19973;-62
2023/03/03 02:55:58;;;;;;;;;;;19.30;41.10;;;;;;5090583;28;19924;-62
2023/03/03 02:58:25;;;;;;;;;;;19.30;41.10;;;;;;5109730;28;19927;-63
2023/03/03 03:00:54;;;;;;;;;;;19.30;41.10;;;;;;5091407;28;19920;-62
2023/03/03 03:03:21;;;;;;;;;;;19.30;41.10;;;;;;5091818;28;19926;-62
2023/03/03 03:05:47;;;;;;;;;;;19.30;41.10;;;;;;5091546;28;19969;-61
2023/03/03 03:08:14;;;;;;;;;;;19.30;41.60;;;;;;5090745;28;20329;-62
2023/03/03 03:10:41;;;;;;;;;;;19.30;41.10;;;;;;5091221;28;19941;-62
2023/03/03 03:13:08;;;;;;;;;;;19.30;41.10;;;;;;5091432;28;19923;-62
2023/03/03 03:15:35;;;;;;;;;;;19.30;41.00;;;;;;5090960;28;19926;-62
2023/03/03 03:18:03;;;;;;;;;;;19.30;41.10;;;;;;5109259;28;19920;-62
2023/03/03 03:20:30;;;;;;;;;;;19.30;41.10;;;;;;5092048;28;19927;-62
2023/03/03 03:22:56;;;;;;;;;;;19.30;41.10;;;;;;5091077;28;19920;-62
2023/03/03 03:25:23;;;;;;;;;;;19.30;41.00;;;;;;5109382;28;19928;-62
2023/03/03 03:27:50;;;;;;;;;;;19.30;41.10;;;;;;5091099;28;20022;-62
2023/03/03 03:30:19;;;;;;;;;;;19.30;41.00;;;;;;5109731;28;19924;-61
2023/03/03 03:32:46;;;;;;;;;;;19.30;41.00;;;;;;5088941;28;19949;-63
2023/03/03 03:35:14;;;;;;;;;;;19.30;41.00;;;;;;5078514;28;19920;-62
2023/03/03 03:37:41;;;;;;;;;;;19.30;41.00;;;;;;5083396;28;19919;-61
2023/03/03 03:40:08;;;;;;;;;;;19.30;41.00;;;;;;5091040;28;19920;-62
2023/03/03 03:42:35;;;;;;;;;;;19.30;41.00;;;;;;5091204;28;19920;-62
2023/03/03 03:45:01;;;;;;;;;;;19.30;41.00;;;;;;5090932;28;19953;-62
2023/03/03 03:47:28;;;;;;;;;;;19.30;41.00;;;;;;5109108;28;19972;-62
2023/03/03 03:49:55;;;;;;;;;;;19.30;41.00;;;;;;5091543;28;19920;-62
2023/03/03 03:52:24;;;;;;;;;;;19.30;41.00;;;;;;5091599;28;19920;-62
2023/03/03 03:54:51;;;;;;;;;;;19.30;41.00;;;;;;5112355;28;20265;-62
2023/03/03 03:57:18;;;;;;;;;;;19.30;40.90;;;;;;5096478;28;19941;-62
2023/03/03 03:59:48;;;;;;;;;;;19.30;40.90;;;;;;5104770;28;19924;-61
2023/03/03 04:02:14;;;;;;;;;;;19.30;41.00;;;;;;5094043;28;19924;-62
2023/03/03 04:04:41;;;;;;;;;;;19.30;40.90;;;;;;5104923;28;20312;-62
2023/03/03 04:07:08;;;;;;;;;;;19.30;40.90;;;;;;5084452;28;19985;-63
2023/03/03 04:09:36;;;;;;;;;;;19.30;40.90;;;;;;5095001;28;19928;-62
2023/03/03 04:12:03;;;;;;;;;;;19.20;40.90;;;;;;5094917;28;19955;-62
2023/03/03 04:14:30;;;;;;;;;;;19.20;40.90;;;;;;5113502;28;19969;-62
2023/03/03 04:16:57;;;;;;;;;;;19.20;40.90;;;;;;5113374;28;19969;-62
2023/03/03 04:19:23;;;;;;;;;;;19.30;40.90;;;;;;5094734;28;19977;-62
2023/03/03 04:21:51;;;;;;;;;;;19.30;40.90;;;;;;5091276;28;19927;-62
2023/03/03 04:24:18;;;;;;;;;;;19.20;40.80;;;;;;5094654;28;19966;-62
2023/03/03 04:26:46;;;;;;;;;;;19.20;40.80;;;;;;5094686;28;19946;-62
2023/03/03 04:29:13;;;;;;;;;;;19.20;40.80;;;;;;5095035;28;19990;-62
2023/03/03 04:31:39;;;;;;;;;;;19.20;40.80;;;;;;5094157;28;19920;-62
2023/03/03 04:34:06;;;;;;;;;;;19.20;40.80;;;;;;5094617;28;19924;-62
2023/03/03 04:36:33;;;;;;;;;;;19.20;40.80;;;;;;5094798;28;19932;-62
2023/03/03 04:39:00;;;;;;;;;;;19.20;40.80;;;;;;5093016;28;19970;-62
2023/03/03 04:41:26;;;;;;;;;;;19.30;40.90;;;;;;5128311;27;19969;-62
2023/03/03 04:43:54;;;;;;;;;;;19.20;40.80;;;;;;5128711;27;19945;-62
2023/03/03 04:46:23;;;;;;;;;;;19.20;40.80;;;;;;5094218;28;19919;-62
2023/03/03 04:48:51;;;;;;;;;;;19.20;40.80;;;;;;5112862;28;19923;-62
2023/03/03 04:51:18;;;;;;;;;;;19.20;40.80;;;;;;5112965;28;19926;-62
2023/03/03 04:53:45;;;;;;;;;;;19.20;40.80;;;;;;5086435;28;19942;-62
2023/03/03 04:56:11;;;;;;;;;;;19.20;40.80;;;;;;5094085;28;19924;-61
2023/03/03 04:58:38;;;;;;;;;;;19.20;40.70;;;;;;5094074;28;19973;-62
2023/03/03 05:01:07;;;;;;;;;;;19.20;40.70;;;;;;5094256;28;20294;-62
2023/03/03 05:03:34;;;;;;;;;;;19.20;40.70;;;;;;5094099;28;19923;-63
2023/03/03 05:06:01;;;;;;;;;;;19.20;40.70;;;;;;5126736;27;19943;-63
2023/03/03 05:08:27;;;;;;;;;;;19.20;40.70;;;;;;5092796;28;19920;-62
2023/03/03 05:10:54;;;;;;;;;;;19.20;40.70;;;;;;5093469;28;19965;-62
2023/03/03 05:13:21;;;;;;;;;;;19.20;40.70;;;;;;5093812;28;19927;-61
2023/03/03 05:15:51;;;;;;;;;;;19.20;40.70;;;;;;5111935;28;19977;-62
2023/03/03 05:18:19;;;;;;;;;;;19.20;41.30;;;;;;5093838;28;20272;-62
2023/03/03 05:20:46;;;;;;;;;;;19.20;40.60;;;;;;5111760;28;19927;-62
2023/03/03 05:23:12;;;;;;;;;;;19.20;40.70;;;;;;5087709;28;19920;-62
2023/03/03 05:25:40;;;;;;;;;;;19.20;40.60;;;;;;5126480;27;19965;-62
2023/03/03 05:28:06;;;;;;;;;;;19.20;40.60;;;;;;5112010;28;19976;-62
2023/03/03 05:30:33;;;;;;;;;;;19.20;40.60;;;;;;5094008;28;19951;-62
2023/03/03 05:33:00;;;;;;;;;;;19.20;40.60;;;;;;5093337;28;19919;-62
2023/03/03 05:35:29;;;;;;;;;;;19.20;40.60;;;;;;5093464;28;19923;-62
2023/03/03 05:37:56;;;;;;;;;;;19.20;40.60;;;;;;5111472;28;19920;-63
2023/03/03 05:40:23;;;;;;;;;;;19.20;40.60;;;;;;5093864;28;19942;-62
2023/03/03 05:42:50;;;;;;;;;;;19.20;40.60;;;;;;5092510;28;19923;-62
2023/03/03 05:45:19;;;;;;;;;;;19.20;40.60;;;;;;5111345;28;20373;-63
2023/03/03 05:47:46;;;;;;;;;;;19.20;40.60;;;;;;5092963;28;19923;-62
2023/03/03 05:50:14;;;;;;;;;;;19.20;40.60;;;;;;5091288;28;19920;-62
2023/03/03 05:52:42;;;;;;;;;;;19.20;40.60;;;;;;5079724;28;19984;-62
2023/03/03 05:55:11;;;;;;;;;;;19.20;40.60;;;;;;5092886;28;19928;-62
2023/03/03 05:57:38;;;;;;;;;;;19.20;40.60;;;;;;5088226;28;20269;-63
2023/03/03 06:00:06;;;;;;;;;;;19.20;40.60;;;;;;5076546;28;19977;-63
2023/03/03 06:02:33;;;;;;;;;;;19.20;40.60;;;;;;5111937;28;20262;-63
2023/03/03 06:05:00;;;;;;;;;;;19.20;40.60;;;;;;5126799;27;20027;-63
2023/03/03 06:07:27;;;;;;;;;;;19.20;40.60;;;;;;5092486;28;20365;-62
2023/03/03 06:09:55;;;;;;;;;;;19.20;40.60;;;;;;5091990;28;19920;-62
2023/03/03 06:12:22;;;;;;;;;;;19.20;40.60;;;;;;5111140;28;19919;-62
2023/03/03 06:14:49;;;;;;;;;;;19.20;40.60;;;;;;5088553;28;19950;-62
2023/03/03 06:17:15;;;;;;;;;;;19.20;40.60;;;;;;5117419;27;19924;-62
2023/03/03 06:19:42;;;;;;;;;;;19.20;40.60;;;;;;5084856;28;19931;-63
2023/03/03 06:22:09;;;;;;;;;;;19.20;40.60;;;;;;5101608;28;19969;-62
2023/03/03 06:24:36;;;;;;;;;;;19.20;40.50;;;;;;5085504;28;19952;-63
2023/03/03 06:27:04;;;;;;;;;;;19.20;40.50;;;;;;5083540;28;19924;-62
2023/03/03 06:29:30;;;;;;;;;;;19.20;40.50;;;;;;5103168;28;20247;-63
2023/03/03 06:31:57;;;;;;;;;;;19.20;40.50;;;;;;5115954;27;19920;-62
2023/03/03 06:34:24;;;;;;;;;;;19.20;40.50;;;;;;5080657;28;19968;-63
2023/03/03 06:36:51;;;;;;;;;;;19.20;40.60;;;;;;5087037;28;19924;-62
2023/03/03 06:39:17;;;;;;;;;;;19.20;40.50;;;;;;5113741;27;20007;-63
2023/03/03 06:41:44;;;;;;;;;;;19.20;40.50;;;;;;5086322;28;20248;-62
2023/03/03 06:44:12;;;;;;;;;;;19.20;40.50;;;;;;5084644;28;19931;-63
2023/03/03 06:46:39;;;;;;;;;;;19.20;40.50;;;;;;5085248;28;20364;-62
2023/03/03 06:49:08;;;;;;;;;;;19.20;40.50;;;;;;5102483;28;19920;-62
2023/03/03 06:51:35;;;;;;;;;;;19.10;40.40;;;;;;5100091;28;19927;-63
2023/03/03 06:54:02;;;;;;;;;;;19.20;40.50;;;;;;5100887;28;19934;-63
2023/03/03 06:56:28;;;;;;;;;;;19.20;40.50;;;;;;5086793;28;19972;-62
2023/03/03 06:58:56;;;;;;;;;;;19.10;40.40;;;;;;5104594;28;19974;-62
2023/03/03 07:01:26;;;;;;;;;;;19.20;40.50;;;;;;5098943;28;19973;-62
2023/03/03 07:03:53;;;;;;;;;;;19.20;40.40;;;;;;5089924;28;19926;-63
2023/03/03 07:06:21;;;;;;;;;;;19.10;40.30;;;;;;5084807;28;19920;-62
2023/03/03 07:08:48;;;;;;;;;;;19.20;40.40;;;;;;5079888;28;20012;-62
2023/03/03 07:11:16;;;;;;;;;;;19.20;40.40;;;;;;5102119;28;19919;-63
2023/03/03 07:13:45;;;;;;;;;;;19.20;40.40;;;;;;5085316;28;19935;-62
2023/03/03 07:16:13;;;;;;;;;;;19.20;40.40;;;;;;5099711;28;19965;-62
2023/03/03 07:18:44;;;;;;;;;;;19.20;40.40;;;;;;5106727;28;19932;-62
2023/03/03 07:21:17;;;;;;;;;;;19.20;40.40;;;;;;5081919;28;19920;-65
2023/03/03 07:23:44;;;;;;;;;;;19.20;40.40;;;;;;5082945;28;19924;-62
2023/03/03 07:26:11;;;;;;;;;;;19.10;40.30;;;;;;5118261;28;19924;-62
2023/03/03 07:28:40;;;;;;;;;;;19.10;40.30;;;;;;5102730;28;19931;-62
2023/03/03 07:31:15;;;;;;;;;;;19.10;40.30;;;;;;5083451;28;19927;-62
2023/03/03 07:33:43;;;;;;;;;;;19.20;40.40;;;;;;5120044;27;19972;-62
2023/03/03 07:36:20;;;;;;;;;;;19.10;40.30;;;;;;5090339;28;19928;-63
2023/03/03 07:38:48;;;;;;;;;;;19.10;40.30;;;;;;5087543;28;20464;-63
2023/03/03 07:41:15;;;;;;;;;;;19.10;40.20;;;;;;5091120;28;19920;-62
2023/03/03 07:43:43;;;;;;;;;;;19.20;40.30;;;;;;5095369;28;19937;-62
2023/03/03 07:46:27;;;;;;;;;;;19.10;40.30;;;;;;5116374;28;19973;-62
2023/03/03 07:48:56;;;;;;;;;;;19.10;40.30;;;;;;5087747;28;19923;-62
2023/03/03 07:51:24;;;;;;;;;;;19.10;40.20;;;;;;5096520;28;19965;-58
2023/03/03 07:53:51;;;;;;;;;;;19.10;40.20;;;;;;5085072;28;19920;-58
2023/03/03 07:56:21;;;;;;;;;;;19.10;34.80;;;;;;5101660;28;20015;-59
2023/03/03 07:58:48;;;;;;;;;;;19.00;32.20;;;;;;5112415;28;19984;-60
2023/03/03 08:01:28;;;;;;;;;;;18.80;31.90;;;;;;5113368;28;19927;-59
2023/03/03 08:03:57;;;;;;;;;;;18.50;30.70;;;;;;5104272;28;20358;-63
2023/03/03 08:06:28;;;;;;;;;;;18.30;31.10;;;;;;5082280;27;20377;-63
2023/03/03 08:08:55;;;;;;;;;;;18.10;32.60;;;;;;5104642;27;20047;-62
2023/03/03 08:11:22;;;;;;;;;;;18.00;33.80;;;;;;5092171;28;19920;-62
2023/03/03 08:13:48;;;;;;;;;;;18.00;34.90;;;;;;5087254;28;19960;-62
2023/03/03 08:16:21;;;;;;;;;;;17.90;35.40;;;;;;5108747;28;19924;-62
2023/03/03 08:18:52;;;;;;;;;;;18.00;36.10;;;;;;5091139;28;19988;-62
2023/03/03 08:21:20;;;;;;;;;;;18.00;36.50;;;;;;5087343;28;19923;-62
2023/03/03 08:23:48;;;;;;;;;;;18.10;37.00;;;;;;5105917;28;20194;-62
2023/03/03 08:26:15;;;;;;;;;;;18.10;37.10;;;;;;5086592;28;19946;-62
2023/03/03 08:28:42;;;;;;;;;;;18.10;37.30;;;;;;5087045;28;19927;-62
2023/03/03 08:31:09;;;;;;;;;;;18.20;37.50;;;;;;5089796;28;19927;-63
2023/03/03 08:33:36;;;;;;;;;;;18.20;37.70;;;;;;5086860;28;19920;-62
2023/03/03 08:36:02;;;;;;;;;;;18.30;37.90;;;;;;5091450;28;19919;-63
2023/03/03 08:38:30;;;;;;;;;;;18.30;38.00;;;;;;5107326;27;19924;-63
2023/03/03 08:40:57;;;;;;;;;;;18.40;38.20;;;;;;5089147;28;19924;-63
2023/03/03 08:43:24;;;;;;;;;;;18.40;38.30;;;;;;5103071;28;20011;-63
2023/03/03 08:45:52;;;;;;;;;;;18.40;38.30;;;;;;5087026;28;19976;-63
2023/03/03 08:48:19;;;;;;;;;;;18.50;38.60;;;;;;5089516;28;20361;-63
2023/03/03 08:50:45;;;;;;;;;;;18.50;38.60;;;;;;5110502;28;19920;-62
2023/03/03 08:53:12;;;;;;;;;;;18.50;38.70;;;;;;5088247;28;20350;-62
2023/03/03 08:55:40;;;;;;;;;;;18.60;38.80;;;;;;5086270;28;19920;-63
2023/03/03 08:58:07;;;;;;;;;;;18.60;38.80;;;;;;5086938;28;20105;-62
2023/03/03 09:00:34;;;;;;;;;;;18.60;38.90;;;;;;5119134;27;19923;-62
2023/03/03 09:03:01;;;;;;;;;;;18.70;39.00;;;;;;5104440;28;19920;-62
2023/03/03 09:05:30;;;;;;;;;;;18.70;39.10;;;;;;5104247;28;19923;-63
2023/03/03 09:07:58;;;;;;;;;;;18.70;39.20;;;;;;5091159;28;20007;-63
2023/03/03 09:10:28;;;;;;;;;;;18.70;39.20;;;;;;5085937;28;20193;-63
2023/03/03 09:12:57;;;;;;;;;;;18.80;39.30;;;;;;5085222;28;19920;-62
2023/03/03 09:15:25;;;;;;;;;;;18.80;39.30;;;;;;5087397;28;20333;-62
2023/03/03 09:17:51;;;;;;;;;;;18.80;39.40;;;;;;5105634;28;20349;-62
2023/03/03 09:20:23;;;;;;;;;;;18.80;39.40;;;;;;5088520;28;20342;-62
2023/03/03 09:22:49;;;;;;;;;;;18.80;39.40;;;;;;5083593;28;19980;-62
2023/03/03 09:25:18;;;;;;;;;;;18.90;39.60;;;;;;5085091;28;19924;-62
2023/03/03 09:27:45;;;;;;;;;;;18.90;39.60;;;;;;5087803;28;19977;-62
2023/03/03 09:30:16;;;;;;;;;;;18.90;39.60;;;;;;5103833;28;20407;-62
2023/03/03 09:32:43;;;;;;;;;;;18.90;39.60;;;;;;5106756;28;19973;-62
2023/03/03 09:35:24;;;;;;;;;;;18.90;39.60;;;;;;5104536;28;19924;-62
2023/03/03 09:37:51;;;;;;;;;;;18.90;39.60;;;;;;5089572;28;20342;-63
2023/03/03 09:40:26;;;;;;;;;;;18.90;39.60;;;;;;5088798;28;19931;-62
2023/03/03 09:42:55;;;;;;;;;;;19.00;39.80;;;;;;5086354;28;19953;-62
2023/03/03 09:45:40;;;;;;;;;;;19.00;39.80;;;;;;5088762;28;19924;-62
2023/03/03 09:48:31;;;;;;;;;;;19.00;39.80;;;;;;5091323;28;19989;-63
2023/03/03 09:51:04;;;;;;;;;;;19.00;39.80;;;;;;5086762;28;19996;-62
2023/03/03 09:53:35;;;;;;;;;;;19.00;39.80;;;;;;5090463;28;19961;-63
2023/03/03 09:56:03;;;;;;;;;;;19.00;39.80;;;;;;5109171;28;19981;-63
2023/03/03 09:58:44;;;;;;;;;;;19.10;40.00;;;;;;5087161;28;20018;-63
2023/03/03 10:01:18;;;;;;;;;;;19.10;39.90;;;;;;5088615;28;19924;-63
2023/03/03 10:03:53;;;;;;;;;;;19.10;40.00;;;;;;5088492;28;19920;-62
2023/03/03 10:06:22;;;;;;;;;;;19.10;40.00;;;;;;5103740;28;19932;-56
2023/03/03 10:08:53;;;;;;;;;;;19.10;40.00;;;;;;5083422;28;19924;-57
2023/03/03 10:11:21;;;;;;;;;;;19.10;40.00;;;;;;5104778;28;19924;-57
2023/03/03 10:14:06;;;;;;;;;;;19.10;39.90;;;;;;5085121;28;19932;-56
2023/03/03 10:16:47;;;;;;;;;;;19.10;39.80;;;;;;5086737;28;19927;-57
2023/03/03 10:19:19;;;;;;;;;;;19.10;39.70;;;;;;5121764;27;19955;-57
2023/03/03 10:21:48;;;;;;;;;;;19.10;39.50;;;;;;5103998;28;19926;-53
2023/03/03 10:24:17;;;;;;;;;;;19.10;39.40;;;;;;5107693;27;20014;-57
2023/03/03 10:27:01;;;;;;;;;;;19.10;39.30;;;;;;5087505;28;19920;-54
2023/03/03 10:29:32;;;;;;;;;;;19.10;39.30;;;;;;5086529;28;19971;-57
2023/03/03 10:32:03;;;;;;;;;;;19.10;39.20;;;;;;5089052;28;19940;-58
2023/03/03 10:34:39;;;;;;;;;;;19.00;39.00;;;;;;5084061;28;19920;-56
2023/03/03 10:37:06;;;;;;;;;;;19.00;39.00;;;;;;5085692;28;19954;-56
2023/03/03 10:39:46;;;;;;;;;;;19.00;38.90;;;;;;5088470;28;19924;-57
2023/03/03 10:42:31;;;;;;;;;;;19.00;38.90;;;;;;5100935;28;20182;-56
2023/03/03 10:45:12;;;;;;;;;;;19.00;38.80;;;;;;5083913;28;19984;-57
2023/03/03 10:47:42;;;;;;;;;;;19.00;38.70;;;;;;5087652;28;19960;-56
2023/03/03 10:50:14;;;;;;;;;;;19.00;38.70;;;;;;5089952;28;19924;-58
2023/03/03 10:52:42;;;;;;;;;;;19.00;38.70;;;;;;5090844;28;19920;-58
2023/03/03 10:55:21;;;;;;;;;;;19.00;38.70;;;;;;5084563;28;19924;-58
2023/03/03 10:57:51;;;;;;;;;;;19.00;38.70;;;;;;5085255;28;20005;-57
2023/03/03 11:00:21;;;;;;;;;;;19.00;38.60;;;;;;5107697;28;19927;-58
2023/03/03 11:02:52;;;;;;;;;;;19.00;38.60;;;;;;5102023;28;19964;-58
2023/03/03 11:05:25;;;;;;;;;;;19.00;38.60;;;;;;5089960;28;19928;-59
2023/03/03 11:07:52;;;;;;;;;;;18.90;38.40;;;;;;5109557;28;19924;-55
2023/03/03 11:10:25;;;;;;;;;;;19.00;38.50;;;;;;5092085;28;19928;-57
2023/03/03 11:12:56;;;;;;;;;;;18.90;38.40;;;;;;5106632;28;20023;-54
2023/03/03 11:15:35;;;;;;;;;;;19.00;38.50;;;;;;5090882;28;19938;-56
2023/03/03 11:18:04;;;;;;;;;;;18.90;38.40;;;;;;5090173;28;20415;-57
2023/03/03 11:20:35;;;;;;;;;;;18.90;38.30;;;;;;5120984;27;20362;-58
2023/03/03 11:23:03;;;;;;;;;;;18.90;38.30;;;;;;5091075;28;20310;-58
2023/03/03 11:25:32;;;;;;;;;;;18.90;38.30;;;;;;5109096;27;20022;-57
2023/03/03 11:28:01;;;;;;;;;;;18.90;38.30;;;;;;5106550;28;20349;-58
2023/03/03 11:30:33;;;;;;;;;;;18.90;38.30;;;;;;5096256;28;19919;-56
2023/03/03 11:33:03;;;;;;;;;;;18.90;38.20;;;;;;5105036;28;19920;-58
2023/03/03 11:35:33;;;;;;;;;;;18.90;38.10;;;;;;5107395;28;19958;-57
2023/03/03 11:38:05;;;;;;;;;;;18.90;38.10;;;;;;5068869;28;19920;-58
2023/03/03 11:40:32;;;;;;;;;;;18.90;38.00;;;;;;5090162;28;20230;-58
2023/03/03 11:43:01;;;;;;;;;;;18.90;38.00;;;;;;5090596;28;20216;-57
2023/03/03 11:45:29;;;;;;;;;;;18.90;37.90;;;;;;5104432;28;19970;-58
2023/03/03 11:47:57;;;;;;;;;;;18.90;37.90;;;;;;5089064;28;19923;-58
2023/03/03 11:50:24;;;;;;;;;;;18.90;37.90;;;;;;5092092;28;19931;-58
2023/03/03 11:52:52;;;;;;;;;;;18.90;37.90;;;;;;5109472;28;19924;-56
2023/03/03 11:55:21;;;;;;;;;;;18.90;38.00;;;;;;5085473;28;20030;-56
2023/03/03 11:57:48;;;;;;;;;;;18.90;38.00;;;;;;5087475;28;19927;-57
2023/03/03 12:00:24;;;;;;;;;;;18.90;38.00;;;;;;5089133;28;19959;-57
2023/03/03 12:03:12;;;;;;;;;;;18.80;37.90;;;;;;5086380;28;20026;-58
2023/03/03 12:05:42;;;;;;;;;;;18.80;37.90;;;;;;5108629;28;19938;-55
2023/03/03 12:08:13;;;;;;;;;;;18.80;37.90;;;;;;5109281;28;20637;-57
2023/03/03 12:10:42;;;;;;;;;;;18.80;37.90;;;;;;5085421;28;19924;-58
2023/03/03 12:13:10;;;;;;;;;;;18.80;37.90;;;;;;5089734;28;19989;-58
2023/03/03 12:15:38;;;;;;;;;;;18.80;37.90;;;;;;5115249;27;19926;-53
2023/03/03 12:18:24;;;;;;;;;;;18.80;37.90;;;;;;5087891;28;19978;-55
2023/03/03 12:20:52;;;;;;;;;;;18.80;38.00;;;;;;5085176;28;19932;-57
2023/03/03 12:23:26;;;;;;;;;;;18.80;38.00;;;;;;5085761;28;19927;-57
2023/03/03 12:25:56;;;;;;;;;;;18.80;38.00;;;;;;5083476;28;19959;-57
2023/03/03 12:28:24;;;;;;;;;;;18.80;38.00;;;;;;5090349;28;19919;-56
2023/03/03 12:31:12;;;;;;;;;;;18.80;38.10;;;;;;5088375;28;19932;-51
2023/03/03 12:33:43;;;;;;;;;;;18.80;38.10;;;;;;5079056;28;19981;-57
2023/03/03 12:36:14;;;;;;;;;;;18.80;38.20;;;;;;5102372;28;19991;-56
2023/03/03 12:38:43;;;;;;;;;;;18.80;38.20;;;;;;5121855;27;19927;-57
2023/03/03 12:41:14;;;;;;;;;;;18.80;38.20;;;;;;5089617;28;19926;-57
2023/03/03 12:43:47;;;;;;;;;;;18.80;38.30;;;;;;5088847;28;19932;-57
2023/03/03 12:46:15;;;;;;;;;;;18.90;38.40;;;;;;5091342;28;19924;-58
2023/03/03 12:48:42;;;;;;;;;;;18.90;38.40;;;;;;5109731;28;19927;-57
2023/03/03 12:51:12;;;;;;;;;;;18.90;38.40;;;;;;5089669;28;19924;-59
2023/03/03 12:54:00;;;;;;;;;;;18.90;38.40;;;;;;5090997;28;20030;-58
2023/03/03 12:56:30;;;;;;;;;;;18.90;38.50;;;;;;5081861;28;19919;-59
2023/03/03 12:58:57;;;;;;;;;;;18.90;38.50;;;;;;5105716;28;19923;-59
2023/03/03 13:01:30;;;;;;;;;;;18.90;38.50;;;;;;5092077;28;20350;-57
2023/03/03 13:03:59;;;;;;;;;;;18.90;38.50;;;;;;5088306;28;19931;-57
2023/03/03 13:06:27;;;;;;;;;;;18.90;38.50;;;;;;5089473;28;19926;-56
2023/03/03 13:08:57;;;;;;;;;;;18.90;38.50;;;;;;5104510;28;19947;-56
2023/03/03 13:11:30;;;;;;;;;;;18.90;38.50;;;;;;5086295;28;19924;-55
2023/03/03 13:13:58;;;;;;;;;;;18.90;38.40;;;;;;5089139;28;19923;-56
2023/03/03 13:16:25;;;;;;;;;;;18.90;38.40;;;;;;5108782;28;20405;-57
2023/03/03 13:18:54;;;;;;;;;;;18.90;38.40;;;;;;5087345;28;19932;-56
2023/03/03 13:21:21;;;;;;;;;;;18.90;38.50;;;;;;5085457;28;19977;-56
2023/03/03 13:23:49;;;;;;;;;;;18.90;38.40;;;;;;5087352;28;19920;-57
2023/03/03 13:26:17;;;;;;;;;;;18.90;38.40;;;;;;5090809;28;19973;-57
2023/03/03 13:28:49;;;;;;;;;;;18.90;38.30;;;;;;5088637;28;19946;-55
2023/03/03 13:31:17;;;;;;;;;;;18.90;38.30;;;;;;5091654;28;20251;-57
2023/03/03 13:33:47;;;;;;;;;;;18.90;38.20;;;;;;5085890;28;20237;-57
2023/03/03 13:36:14;;;;;;;;;;;18.90;38.00;;;;;;5089215;28;19959;-58
2023/03/03 13:38:41;;;;;;;;;;;18.90;38.10;;;;;;5089327;28;20293;-57
2023/03/03 13:41:10;;;;;;;;;;;18.90;38.10;;;;;;5084528;28;19920;-58
2023/03/03 13:43:39;;;;;;;;;;;18.90;38.10;;;;;;5086337;28;19958;-57
2023/03/03 13:46:10;;;;;;;;;;;18.90;38.80;;;;;;5106518;28;19924;-57
2023/03/03 13:48:40;;;;;;;;;;;18.90;38.20;;;;;;5108672;28;19931;-58
2023/03/03 13:51:09;;;;;;;;;;;18.90;38.30;;;;;;5087918;28;19931;-57
2023/03/03 13:53:41;;;;;;;;;;;18.90;38.30;;;;;;5090306;28;20316;-58
2023/03/03 13:56:11;;;;;;;;;;;18.90;38.30;;;;;;5086671;28;19934;-57
2023/03/03 13:58:38;;;;;;;;;;;18.90;38.30;;;;;;5089224;28;19955;-57
2023/03/03 14:01:06;;;;;;;;;;;18.90;38.30;;;;;;5090069;28;19924;-57
2023/03/03 14:03:41;;;;;;;;;;;18.90;38.40;;;;;;5088363;28;19920;-58
2023/03/03 14:06:10;;;;;;;;;;;18.90;38.40;;;;;;5084997;28;19924;-57
2023/03/03 14:08:43;;;;;;;;;;;18.90;38.40;;;;;;5083104;28;19920;-56
2023/03/03 14:11:11;;;;;;;;;;;18.90;38.40;;;;;;5104269;28;19977;-58
2023/03/03 14:13:40;;;;;;;;;;;18.90;38.40;;;;;;5088351;28;19920;-58
2023/03/03 14:16:10;;;;;;;;;;;18.90;38.40;;;;;;5116402;27;20409;-56
2023/03/03 14:18:37;;;;;;;;;;;18.90;38.30;;;;;;5119713;27;19920;-55
2023/03/03 14:21:07;;;;;;;;;;;18.90;38.30;;;;;;5086734;28;20304;-56
2023/03/03 14:23:36;;;;;;;;;;;18.90;38.30;;;;;;5120963;27;19920;-57
2023/03/03 14:26:07;;;;;;;;;;;18.90;38.30;;;;;;5087173;28;19969;-57